sensor_id;sensor_type;location;lat;lon;timestamp;pressure;altitude;pressure_sealevel;temperature;humidity
81057;BME280;70563;50.084;14.468;2023-06-24T00:00:26;99238.22;;;14.47;84.94
81057;BME280;70563;50.084;14.468;2023-06-24T00:02:51;99235.19;;;14.50;85.61
81057;BME280;70563;50.084;14.468;2023-06-24T00:05:19;99232.78;;;14.55;85.69
81057;BME280;70563;50.084;14.468;2023-06-24T00:07:44;99229.19;;;14.69;84.56
81057;BME280;70563;50.084;14.468;2023-06-24T00:10:13;99232.66;;;14.70;84.68
81057;BME280;70563;50.084;14.468;2023-06-24T00:12:39;99234.66;;;14.61;84.98
81057;BME280;70563;50.084;14.468;2023-06-24T00:15:09;99225.88;;;14.67;84.18
81057;BME280;70563;50.084;14.468;2023-06-24T00:17:35;99222.53;;;14.52;85.36
81057;BME280;70563;50.084;14.468;2023-06-24T00:20:01;99224.19;;;14.53;85.71
81057;BME280;70563;50.084;14.468;2023-06-24T00:22:29;99228.81;;;14.44;85.22
81057;BME280;70563;50.084;14.468;2023-06-24T00:24:55;99237.56;;;14.38;86.67
81057;BME280;70563;50.084;14.468;2023-06-24T00:27:20;99244.13;;;14.42;86.28
81057;BME280;70563;50.084;14.468;2023-06-24T00:29:45;99245.31;;;14.40;86.86
81057;BME280;70563;50.084;14.468;2023-06-24T00:32:10;99241.22;;;14.37;86.40
81057;BME280;70563;50.084;14.468;2023-06-24T00:34:36;99241.22;;;14.37;86.42
81057;BME280;70563;50.084;14.468;2023-06-24T00:37:01;99246.72;;;14.36;86.90
81057;BME280;70563;50.084;14.468;2023-06-24T00:39:28;99247.53;;;14.36;86.72
81057;BME280;70563;50.084;14.468;2023-06-24T00:41:53;99257.16;;;14.37;85.33
81057;BME280;70563;50.084;14.468;2023-06-24T00:44:19;99261.88;;;14.42;86.56
81057;BME280;70563;50.084;14.468;2023-06-24T00:46:44;99271.19;;;14.52;86.37
81057;BME280;70563;50.084;14.468;2023-06-24T00:49:11;99273.84;;;14.52;85.52
81057;BME280;70563;50.084;14.468;2023-06-24T00:51:40;99270.81;;;14.55;85.05
81057;BME280;70563;50.084;14.468;2023-06-24T00:54:12;99272.00;;;14.53;84.21
81057;BME280;70563;50.084;14.468;2023-06-24T00:56:38;99274.31;;;14.63;84.02
81057;BME280;70563;50.084;14.468;2023-06-24T00:59:04;99272.59;;;14.48;84.42
81057;BME280;70563;50.084;14.468;2023-06-24T01:01:33;99277.31;;;14.53;83.49
81057;BME280;70563;50.084;14.468;2023-06-24T01:04:01;99269.75;;;14.50;83.98
81057;BME280;70563;50.084;14.468;2023-06-24T01:06:28;99280.19;;;14.51;84.33
81057;BME280;70563;50.084;14.468;2023-06-24T01:08:57;99280.63;;;14.55;83.75
81057;BME280;70563;50.084;14.468;2023-06-24T01:11:26;99276.53;;;14.59;83.73
81057;BME280;70563;50.084;14.468;2023-06-24T01:13:51;99271.03;;;14.61;82.82
81057;BME280;70563;50.084;14.468;2023-06-24T01:16:37;99268.00;;;14.64;83.05
81057;BME280;70563;50.084;14.468;2023-06-24T01:22:15;99270.22;;;14.60;83.35
81057;BME280;70563;50.084;14.468;2023-06-24T01:27:32;99265.50;;;14.55;83.59
81057;BME280;70563;50.084;14.468;2023-06-24T01:33:03;99270.66;;;14.64;82.45
81057;BME280;70563;50.084;14.468;2023-06-24T01:35:32;99265.59;;;14.75;81.77
81057;BME280;70563;50.084;14.468;2023-06-24T01:38:01;99259.59;;;14.60;82.56
81057;BME280;70563;50.084;14.468;2023-06-24T01:40:32;99255.72;;;14.63;82.78
81057;BME280;70563;50.084;14.468;2023-06-24T01:43:03;99253.34;;;14.74;82.77
81057;BME280;70563;50.084;14.468;2023-06-24T01:45:35;99265.38;;;14.70;82.33
81057;BME280;70563;50.084;14.468;2023-06-24T01:48:07;99261.53;;;14.79;81.10
81057;BME280;70563;50.084;14.468;2023-06-24T01:50:35;99261.69;;;14.71;81.92
81057;BME280;70563;50.084;14.468;2023-06-24T01:53:04;99259.59;;;14.60;82.33
81057;BME280;70563;50.084;14.468;2023-06-24T01:55:31;99264.72;;;14.62;82.62
81057;BME280;70563;50.084;14.468;2023-06-24T01:57:59;99263.50;;;14.64;82.14
81057;BME280;70563;50.084;14.468;2023-06-24T02:00:27;99275.81;;;14.72;82.95
81057;BME280;70563;50.084;14.468;2023-06-24T02:02:54;99275.25;;;14.83;83.15
81057;BME280;70563;50.084;14.468;2023-06-24T02:05:20;99285.91;;;14.83;82.67
81057;BME280;70563;50.084;14.468;2023-06-24T02:07:47;99278.72;;;14.77;82.79
81057;BME280;70563;50.084;14.468;2023-06-24T02:10:14;99283.84;;;14.78;83.11
81057;BME280;70563;50.084;14.468;2023-06-24T02:12:42;99285.28;;;14.81;82.41
81057;BME280;70563;50.084;14.468;2023-06-24T02:15:09;99292.25;;;14.89;82.24
81057;BME280;70563;50.084;14.468;2023-06-24T02:17:36;99297.16;;;14.85;81.70
81057;BME280;70563;50.084;14.468;2023-06-24T02:20:03;99297.56;;;14.82;82.62
81057;BME280;70563;50.084;14.468;2023-06-24T02:22:31;99291.44;;;14.88;82.94
81057;BME280;70563;50.084;14.468;2023-06-24T02:24:56;99297.81;;;14.94;82.39
81057;BME280;70563;50.084;14.468;2023-06-24T02:27:23;99296.75;;;14.88;80.98
81057;BME280;70563;50.084;14.468;2023-06-24T02:29:49;99308.22;;;14.89;81.28
81057;BME280;70563;50.084;14.468;2023-06-24T02:32:15;99303.56;;;14.97;82.68
81057;BME280;70563;50.084;14.468;2023-06-24T02:34:41;99290.47;;;14.96;81.82
81057;BME280;70563;50.084;14.468;2023-06-24T02:37:06;99303.38;;;14.99;81.50
81057;BME280;70563;50.084;14.468;2023-06-24T02:39:32;99301.75;;;15.04;81.38
81057;BME280;70563;50.084;14.468;2023-06-24T02:41:57;99299.69;;;15.00;81.52
81057;BME280;70563;50.084;14.468;2023-06-24T02:44:23;99302.72;;;14.90;81.75
81057;BME280;70563;50.084;14.468;2023-06-24T02:46:48;99315.00;;;14.91;82.12
81057;BME280;70563;50.084;14.468;2023-06-24T02:49:15;99310.78;;;15.03;81.96
81057;BME280;70563;50.084;14.468;2023-06-24T02:51:43;99307.47;;;15.01;81.71
81057;BME280;70563;50.084;14.468;2023-06-24T02:54:09;99318.31;;;15.00;81.86
81057;BME280;70563;50.084;14.468;2023-06-24T02:56:37;99323.19;;;14.90;82.20
81057;BME280;70563;50.084;14.468;2023-06-24T02:59:07;99326.59;;;14.84;81.97
81057;BME280;70563;50.084;14.468;2023-06-24T03:01:33;99338.25;;;14.83;82.16
81057;BME280;70563;50.084;14.468;2023-06-24T03:04:04;99336.41;;;14.83;82.82
81057;BME280;70563;50.084;14.468;2023-06-24T03:06:30;99337.66;;;14.87;82.36
81057;BME280;70563;50.084;14.468;2023-06-24T03:08:57;99343.41;;;14.91;82.27
81057;BME280;70563;50.084;14.468;2023-06-24T03:11:23;99345.72;;;15.00;82.24
81057;BME280;70563;50.084;14.468;2023-06-24T03:13:48;99338.19;;;15.04;82.82
81057;BME280;70563;50.084;14.468;2023-06-24T03:16:13;99349.44;;;15.06;82.47
81057;BME280;70563;50.084;14.468;2023-06-24T03:18:41;99351.50;;;15.11;82.90
81057;BME280;70563;50.084;14.468;2023-06-24T03:21:07;99362.94;;;15.04;82.66
81057;BME280;70563;50.084;14.468;2023-06-24T03:23:32;99361.88;;;14.99;82.46
81057;BME280;70563;50.084;14.468;2023-06-24T03:25:58;99357.03;;;15.09;82.92
81057;BME280;70563;50.084;14.468;2023-06-24T03:28:23;99358.66;;;15.10;81.96
81057;BME280;70563;50.084;14.468;2023-06-24T03:30:48;99363.97;;;15.10;82.53
81057;BME280;70563;50.084;14.468;2023-06-24T03:33:14;99359.75;;;15.16;81.56
81057;BME280;70563;50.084;14.468;2023-06-24T03:35:45;99357.47;;;15.13;81.84
81057;BME280;70563;50.084;14.468;2023-06-24T03:38:10;99364.78;;;15.11;81.47
81057;BME280;70563;50.084;14.468;2023-06-24T03:40:37;99364.56;;;15.05;81.42
81057;BME280;70563;50.084;14.468;2023-06-24T03:43:02;99364.53;;;14.99;81.45
81057;BME280;70563;50.084;14.468;2023-06-24T03:45:27;99365.66;;;15.11;82.07
81057;BME280;70563;50.084;14.468;2023-06-24T03:47:53;99359.09;;;15.14;81.19
81057;BME280;70563;50.084;14.468;2023-06-24T03:50:19;99362.06;;;15.32;80.92
81057;BME280;70563;50.084;14.468;2023-06-24T03:52:44;99361.38;;;15.23;80.85
81057;BME280;70563;50.084;14.468;2023-06-24T03:55:10;99367.34;;;15.25;81.25
81057;BME280;70563;50.084;14.468;2023-06-24T03:57:36;99362.03;;;15.25;81.30
81057;BME280;70563;50.084;14.468;2023-06-24T04:00:02;99369.00;;;15.26;81.12
81057;BME280;70563;50.084;14.468;2023-06-24T04:02:32;99362.41;;;15.22;80.84
81057;BME280;70563;50.084;14.468;2023-06-24T04:04:58;99368.75;;;15.21;80.39
81057;BME280;70563;50.084;14.468;2023-06-24T04:07:23;99360.13;;;15.19;81.03
81057;BME280;70563;50.084;14.468;2023-06-24T04:09:55;99362.41;;;15.16;80.48
81057;BME280;70563;50.084;14.468;2023-06-24T04:12:21;99357.91;;;15.23;81.30
81057;BME280;70563;50.084;14.468;2023-06-24T04:14:46;99355.53;;;15.35;79.95
81057;BME280;70563;50.084;14.468;2023-06-24T04:17:12;99349.38;;;15.34;80.21
81057;BME280;70563;50.084;14.468;2023-06-24T04:19:37;99353.47;;;15.37;80.30
81057;BME280;70563;50.084;14.468;2023-06-24T04:22:02;99350.66;;;15.45;80.22
81057;BME280;70563;50.084;14.468;2023-06-24T04:24:28;99363.34;;;15.49;79.44
81057;BME280;70563;50.084;14.468;2023-06-24T04:26:53;99359.28;;;15.47;79.60
81057;BME280;70563;50.084;14.468;2023-06-24T04:29:18;99359.28;;;15.47;80.21
81057;BME280;70563;50.084;14.468;2023-06-24T04:31:44;99359.88;;;15.49;79.56
81057;BME280;70563;50.084;14.468;2023-06-24T04:34:09;99363.78;;;15.53;79.43
81057;BME280;70563;50.084;14.468;2023-06-24T04:36:34;99368.81;;;15.69;78.86
81057;BME280;70563;50.084;14.468;2023-06-24T04:39:00;99373.31;;;15.75;78.89
81057;BME280;70563;50.084;14.468;2023-06-24T04:41:26;99362.66;;;15.75;78.74
81057;BME280;70563;50.084;14.468;2023-06-24T04:43:51;99371.28;;;15.77;79.35
81057;BME280;70563;50.084;14.468;2023-06-24T04:46:16;99367.59;;;15.78;79.17
81057;BME280;70563;50.084;14.468;2023-06-24T04:48:42;99367.81;;;15.77;78.67
81057;BME280;70563;50.084;14.468;2023-06-24T04:51:07;99365.97;;;15.77;78.40
81057;BME280;70563;50.084;14.468;2023-06-24T04:53:32;99365.56;;;15.87;78.81
81057;BME280;70563;50.084;14.468;2023-06-24T04:55:59;99376.47;;;15.99;78.43
81057;BME280;70563;50.084;14.468;2023-06-24T04:58:24;99375.44;;;15.93;78.55
81057;BME280;70563;50.084;14.468;2023-06-24T05:00:49;99366.00;;;15.91;78.21
81057;BME280;70563;50.084;14.468;2023-06-24T05:03:15;99382.78;;;15.85;78.39
81057;BME280;70563;50.084;14.468;2023-06-24T05:05:40;99379.75;;;15.94;78.93
81057;BME280;70563;50.084;14.468;2023-06-24T05:08:05;99382.81;;;15.98;78.27
81057;BME280;70563;50.084;14.468;2023-06-24T05:10:31;99383.47;;;16.07;78.22
81057;BME280;70563;50.084;14.468;2023-06-24T05:12:56;99389.81;;;16.19;77.77
81057;BME280;70563;50.084;14.468;2023-06-24T05:15:22;99390.25;;;16.16;77.17
81057;BME280;70563;50.084;14.468;2023-06-24T05:17:47;99397.00;;;16.18;77.12
81057;BME280;70563;50.084;14.468;2023-06-24T05:20:12;99401.53;;;16.24;77.33
81057;BME280;70563;50.084;14.468;2023-06-24T05:22:38;99392.69;;;16.17;76.73
81057;BME280;70563;50.084;14.468;2023-06-24T05:25:03;99403.78;;;16.21;76.60
81057;BME280;70563;50.084;14.468;2023-06-24T05:27:29;99396.81;;;16.40;76.01
81057;BME280;70563;50.084;14.468;2023-06-24T05:29:54;99395.00;;;16.47;76.46
81057;BME280;70563;50.084;14.468;2023-06-24T05:32:20;99403.38;;;16.44;76.46
81057;BME280;70563;50.084;14.468;2023-06-24T05:34:46;99403.41;;;16.37;75.74
81057;BME280;70563;50.084;14.468;2023-06-24T05:37:11;99410.16;;;16.40;76.21
81057;BME280;70563;50.084;14.468;2023-06-24T05:39:36;99420.00;;;16.33;75.46
81057;BME280;70563;50.084;14.468;2023-06-24T05:42:02;99421.00;;;16.31;76.19
81057;BME280;70563;50.084;14.468;2023-06-24T05:44:27;99427.16;;;16.32;76.67
81057;BME280;70563;50.084;14.468;2023-06-24T05:46:53;99422.22;;;16.36;76.03
81057;BME280;70563;50.084;14.468;2023-06-24T05:49:18;99428.81;;;16.40;75.72
81057;BME280;70563;50.084;14.468;2023-06-24T05:51:44;99424.53;;;16.52;75.93
81057;BME280;70563;50.084;14.468;2023-06-24T05:54:09;99423.53;;;16.73;74.80
81057;BME280;70563;50.084;14.468;2023-06-24T05:56:34;99426.81;;;16.82;74.39
81057;BME280;70563;50.084;14.468;2023-06-24T05:59:01;99431.72;;;16.91;74.61
81057;BME280;70563;50.084;14.468;2023-06-24T06:01:27;99432.16;;;17.01;73.80
81057;BME280;70563;50.084;14.468;2023-06-24T06:03:52;99436.06;;;17.05;73.27
81057;BME280;70563;50.084;14.468;2023-06-24T06:06:17;99440.34;;;17.13;73.24
81057;BME280;70563;50.084;14.468;2023-06-24T06:08:43;99442.78;;;17.21;73.34
81057;BME280;70563;50.084;14.468;2023-06-24T06:11:08;99438.09;;;17.23;72.38
81057;BME280;70563;50.084;14.468;2023-06-24T06:13:33;99446.69;;;17.32;72.83
81057;BME280;70563;50.084;14.468;2023-06-24T06:15:59;99439.66;;;17.51;72.43
81057;BME280;70563;50.084;14.468;2023-06-24T06:18:24;99436.97;;;17.58;72.28
81057;BME280;70563;50.084;14.468;2023-06-24T06:20:50;99445.44;;;17.41;72.27
81057;BME280;70563;50.084;14.468;2023-06-24T06:23:16;99449.25;;;17.72;71.98
81057;BME280;70563;50.084;14.468;2023-06-24T06:25:42;99448.75;;;18.01;70.75
81057;BME280;70563;50.084;14.468;2023-06-24T06:28:07;99455.72;;;18.09;70.49
81057;BME280;70563;50.084;14.468;2023-06-24T06:30:33;99461.66;;;18.11;71.23
81057;BME280;70563;50.084;14.468;2023-06-24T06:32:58;99453.22;;;18.14;70.45
81057;BME280;70563;50.084;14.468;2023-06-24T06:35:23;99458.19;;;18.42;70.18
81057;BME280;70563;50.084;14.468;2023-06-24T06:37:49;99467.53;;;18.58;69.38
81057;BME280;70563;50.084;14.468;2023-06-24T06:40:21;99466.34;;;18.86;68.78
81057;BME280;70563;50.084;14.468;2023-06-24T06:42:47;99462.47;;;19.07;69.97
81057;BME280;70563;50.084;14.468;2023-06-24T06:45:13;99448.41;;;19.11;69.38
81057;BME280;70563;50.084;14.468;2023-06-24T06:47:38;99447.56;;;19.36;68.65
81057;BME280;70563;50.084;14.468;2023-06-24T06:50:04;99448.69;;;19.46;68.60
81057;BME280;70563;50.084;14.468;2023-06-24T06:52:29;99449.72;;;19.45;67.24
81057;BME280;70563;50.084;14.468;2023-06-24T06:54:55;99445.50;;;19.13;67.95
81057;BME280;70563;50.084;14.468;2023-06-24T06:57:21;99439.97;;;19.33;67.81
81057;BME280;70563;50.084;14.468;2023-06-24T06:59:46;99442.72;;;20.18;65.52
81057;BME280;70563;50.084;14.468;2023-06-24T07:02:11;99451.38;;;20.62;62.67
81057;BME280;70563;50.084;14.468;2023-06-24T07:04:37;99433.91;;;21.76;59.15
81057;BME280;70563;50.084;14.468;2023-06-24T07:07:02;99432.16;;;23.62;53.12
81057;BME280;70563;50.084;14.468;2023-06-24T07:09:28;99429.75;;;25.86;46.19
81057;BME280;70563;50.084;14.468;2023-06-24T07:11:53;99441.22;;;27.41;42.04
81057;BME280;70563;50.084;14.468;2023-06-24T07:14:19;99438.53;;;27.41;41.52
81057;BME280;70563;50.084;14.468;2023-06-24T07:16:44;99439.41;;;26.90;43.20
81057;BME280;70563;50.084;14.468;2023-06-24T07:19:09;99444.00;;;27.00;42.76
81057;BME280;70563;50.084;14.468;2023-06-24T07:21:35;99440.75;;;27.13;42.40
81057;BME280;70563;50.084;14.468;2023-06-24T07:24:00;99449.38;;;27.36;41.80
81057;BME280;70563;50.084;14.468;2023-06-24T07:26:25;99431.84;;;27.98;39.79
81057;BME280;70563;50.084;14.468;2023-06-24T07:28:55;99434.63;;;27.78;40.51
81057;BME280;70563;50.084;14.468;2023-06-24T07:31:21;99432.00;;;28.56;39.32
81057;BME280;70563;50.084;14.468;2023-06-24T07:33:46;99426.53;;;29.24;36.84
81057;BME280;70563;50.084;14.468;2023-06-24T07:36:11;99422.81;;;29.15;37.39
81057;BME280;70563;50.084;14.468;2023-06-24T07:38:38;99425.34;;;30.92;34.26
81057;BME280;70563;50.084;14.468;2023-06-24T07:41:04;99415.22;;;30.79;33.97
81057;BME280;70563;50.084;14.468;2023-06-24T07:43:29;99421.25;;;29.09;36.58
81057;BME280;70563;50.084;14.468;2023-06-24T07:45:54;99418.50;;;27.06;41.45
81057;BME280;70563;50.084;14.468;2023-06-24T07:48:20;99420.44;;;25.09;45.77
81057;BME280;70563;50.084;14.468;2023-06-24T07:50:45;99425.09;;;24.54;47.91
81057;BME280;70563;50.084;14.468;2023-06-24T07:53:10;99427.13;;;23.88;49.94
81057;BME280;70563;50.084;14.468;2023-06-24T07:55:35;99429.56;;;25.45;45.82
81057;BME280;70563;50.084;14.468;2023-06-24T07:58:01;99425.25;;;26.37;42.85
81057;BME280;70563;50.084;14.468;2023-06-24T08:00:28;99430.31;;;27.61;39.78
81057;BME280;70563;50.084;14.468;2023-06-24T08:02:53;99422.00;;;28.02;38.94
81057;BME280;70563;50.084;14.468;2023-06-24T08:05:20;99427.38;;;28.91;36.99
81057;BME280;70563;50.084;14.468;2023-06-24T08:07:46;99430.81;;;29.31;36.15
81057;BME280;70563;50.084;14.468;2023-06-24T08:10:11;99426.72;;;29.04;36.22
81057;BME280;70563;50.084;14.468;2023-06-24T08:12:37;99431.84;;;29.35;35.81
81057;BME280;70563;50.084;14.468;2023-06-24T08:15:02;99429.50;;;28.25;38.03
81057;BME280;70563;50.084;14.468;2023-06-24T08:17:28;99426.56;;;29.91;34.62
81057;BME280;70563;50.084;14.468;2023-06-24T08:19:53;99429.59;;;30.09;33.58
81057;BME280;70563;50.084;14.468;2023-06-24T08:22:19;99426.03;;;30.32;32.62
81057;BME280;70563;50.084;14.468;2023-06-24T08:24:44;99421.41;;;28.60;34.35
81057;BME280;70563;50.084;14.468;2023-06-24T08:27:10;99431.50;;;28.49;36.29
81057;BME280;70563;50.084;14.468;2023-06-24T08:29:35;99422.63;;;30.21;32.42
81057;BME280;70563;50.084;14.468;2023-06-24T08:32:00;99428.25;;;31.42;29.41
81057;BME280;70563;50.084;14.468;2023-06-24T08:34:26;99426.06;;;33.11;26.52
81057;BME280;70563;50.084;14.468;2023-06-24T08:36:51;99429.63;;;33.52;24.74
81057;BME280;70563;50.084;14.468;2023-06-24T08:39:17;99425.97;;;33.65;25.41
81057;BME280;70563;50.084;14.468;2023-06-24T08:41:42;99437.16;;;32.25;26.99
81057;BME280;70563;50.084;14.468;2023-06-24T08:44:07;99431.59;;;30.03;30.98
81057;BME280;70563;50.084;14.468;2023-06-24T08:46:33;99430.44;;;29.13;32.68
81057;BME280;70563;50.084;14.468;2023-06-24T08:52:02;99431.31;;;27.91;35.25
81057;BME280;70563;50.084;14.468;2023-06-24T08:54:28;99427.09;;;27.49;37.21
81057;BME280;70563;50.084;14.468;2023-06-24T08:56:53;99420.19;;;28.42;34.20
81057;BME280;70563;50.084;14.468;2023-06-24T08:59:19;99430.19;;;26.86;37.00
81057;BME280;70563;50.084;14.468;2023-06-24T09:01:48;99427.25;;;30.02;31.18
81057;BME280;70563;50.084;14.468;2023-06-24T09:04:14;99429.94;;;32.88;26.58
81057;BME280;70563;50.084;14.468;2023-06-24T09:06:40;99429.22;;;33.84;24.08
81057;BME280;70563;50.084;14.468;2023-06-24T09:09:17;99432.19;;;31.91;26.29
81057;BME280;70563;50.084;14.468;2023-06-24T09:11:54;99420.56;;;31.30;27.14
81057;BME280;70563;50.084;14.468;2023-06-24T09:14:20;99422.59;;;30.59;29.37
81057;BME280;70563;50.084;14.468;2023-06-24T09:17:11;99430.66;;;32.35;26.47
81057;BME280;70563;50.084;14.468;2023-06-24T09:19:37;99426.16;;;32.53;25.49
81057;BME280;70563;50.084;14.468;2023-06-24T09:22:03;99430.69;;;30.83;28.60
81057;BME280;70563;50.084;14.468;2023-06-24T09:24:36;99427.66;;;29.71;30.78
81057;BME280;70563;50.084;14.468;2023-06-24T09:27:03;99441.91;;;31.28;28.97
81057;BME280;70563;50.084;14.468;2023-06-24T09:29:33;99431.66;;;33.86;26.10
81057;BME280;70563;50.084;14.468;2023-06-24T09:31:58;99433.41;;;35.12;23.91
81057;BME280;70563;50.084;14.468;2023-06-24T09:34:28;99438.09;;;32.20;27.80
81057;BME280;70563;50.084;14.468;2023-06-24T09:36:55;99434.88;;;32.18;27.85
81057;BME280;70563;50.084;14.468;2023-06-24T09:39:21;99426.16;;;29.60;32.10
81057;BME280;70563;50.084;14.468;2023-06-24T09:41:50;99421.66;;;29.21;32.72
81057;BME280;70563;50.084;14.468;2023-06-24T09:44:16;99422.31;;;30.93;29.70
81057;BME280;70563;50.084;14.468;2023-06-24T09:46:44;99423.50;;;29.98;31.39
81057;BME280;70563;50.084;14.468;2023-06-24T09:49:10;99424.31;;;33.15;26.12
81057;BME280;70563;50.084;14.468;2023-06-24T09:51:38;99431.81;;;35.11;23.53
81057;BME280;70563;50.084;14.468;2023-06-24T09:54:06;99437.13;;;36.67;21.30
81057;BME280;70563;50.084;14.468;2023-06-24T09:56:36;99423.88;;;37.88;19.43
81057;BME280;70563;50.084;14.468;2023-06-24T09:59:05;99422.06;;;36.32;20.66
81057;BME280;70563;50.084;14.468;2023-06-24T10:01:32;99412.91;;;33.22;24.33
81057;BME280;70563;50.084;14.468;2023-06-24T10:04:00;99430.44;;;34.61;22.29
81057;BME280;70563;50.084;14.468;2023-06-24T10:06:26;99413.75;;;33.88;23.92
81057;BME280;70563;50.084;14.468;2023-06-24T10:08:52;99416.03;;;33.38;24.91
81057;BME280;70563;50.084;14.468;2023-06-24T10:11:18;99426.53;;;31.60;28.20
81057;BME280;70563;50.084;14.468;2023-06-24T10:13:43;99428.38;;;31.37;28.46
81057;BME280;70563;50.084;14.468;2023-06-24T10:16:09;99418.69;;;35.16;23.25
81057;BME280;70563;50.084;14.468;2023-06-24T10:18:36;99433.25;;;36.27;21.05
81057;BME280;70563;50.084;14.468;2023-06-24T10:21:03;99417.63;;;34.83;22.02
81057;BME280;70563;50.084;14.468;2023-06-24T10:34:22;99410.69;;;32.70;25.81
81057;BME280;70563;50.084;14.468;2023-06-24T10:39:35;99405.22;;;30.55;28.57
81057;BME280;70563;50.084;14.468;2023-06-24T10:44:55;99386.31;;;32.15;26.07
81057;BME280;70563;50.084;14.468;2023-06-24T10:47:26;99389.94;;;33.40;24.68
81057;BME280;70563;50.084;14.468;2023-06-24T10:49:51;99379.88;;;32.56;24.97
81057;BME280;70563;50.084;14.468;2023-06-24T10:52:22;99385.38;;;34.80;23.19
81057;BME280;70563;50.084;14.468;2023-06-24T10:54:49;99385.44;;;34.10;23.53
81057;BME280;70563;50.084;14.468;2023-06-24T10:57:15;99387.81;;;31.85;26.05
81057;BME280;70563;50.084;14.468;2023-06-24T10:59:49;99374.16;;;31.71;26.70
81057;BME280;70563;50.084;14.468;2023-06-24T11:02:20;99378.19;;;33.97;23.39
81057;BME280;70563;50.084;14.468;2023-06-24T11:04:48;99371.91;;;35.72;21.23
81057;BME280;70563;50.084;14.468;2023-06-24T11:07:16;99374.41;;;36.28;19.69
81057;BME280;70563;50.084;14.468;2023-06-24T11:09:42;99357.25;;;36.76;18.94
81057;BME280;70563;50.084;14.468;2023-06-24T11:12:11;99370.53;;;36.08;19.75
81057;BME280;70563;50.084;14.468;2023-06-24T11:14:38;99365.88;;;37.73;17.93
81057;BME280;70563;50.084;14.468;2023-06-24T11:17:04;99358.25;;;38.94;16.69
81057;BME280;70563;50.084;14.468;2023-06-24T11:19:33;99363.47;;;37.71;18.03
81057;BME280;70563;50.084;14.468;2023-06-24T11:21:59;99359.88;;;37.95;17.22
81057;BME280;70563;50.084;14.468;2023-06-24T11:24:26;99339.63;;;37.63;18.18
81057;BME280;70563;50.084;14.468;2023-06-24T11:26:51;99349.81;;;36.89;18.62
81057;BME280;70563;50.084;14.468;2023-06-24T11:29:16;99348.06;;;35.64;19.96
81057;BME280;70563;50.084;14.468;2023-06-24T11:31:42;99344.13;;;36.94;17.95
81057;BME280;70563;50.084;14.468;2023-06-24T11:34:09;99343.78;;;37.20;17.99
81057;BME280;70563;50.084;14.468;2023-06-24T11:36:36;99343.41;;;38.11;17.25
81057;BME280;70563;50.084;14.468;2023-06-24T11:39:01;99337.88;;;36.85;18.24
81057;BME280;70563;50.084;14.468;2023-06-24T11:41:27;99336.88;;;37.38;17.43
81057;BME280;70563;50.084;14.468;2023-06-24T11:43:53;99337.25;;;38.02;16.87
81057;BME280;70563;50.084;14.468;2023-06-24T11:46:28;99329.22;;;37.97;16.53
81057;BME280;70563;50.084;14.468;2023-06-24T11:49:08;99336.84;;;37.87;16.90
81057;BME280;70563;50.084;14.468;2023-06-24T11:51:34;99336.06;;;38.43;16.33
81057;BME280;70563;50.084;14.468;2023-06-24T11:54:01;99330.72;;;36.26;18.37
81057;BME280;70563;50.084;14.468;2023-06-24T11:56:37;99327.13;;;37.16;17.39
81057;BME280;70563;50.084;14.468;2023-06-24T11:59:22;99330.47;;;38.27;16.55
81057;BME280;70563;50.084;14.468;2023-06-24T12:01:57;99330.34;;;37.43;16.15
81057;BME280;70563;50.084;14.468;2023-06-24T12:04:29;99329.13;;;32.95;21.74
81057;BME280;70563;50.084;14.468;2023-06-24T12:06:55;99323.53;;;36.34;18.33
81057;BME280;70563;50.084;14.468;2023-06-24T12:09:21;99323.41;;;36.30;18.05
81057;BME280;70563;50.084;14.468;2023-06-24T12:11:47;99317.91;;;36.63;17.71
81057;BME280;70563;50.084;14.468;2023-06-24T12:14:12;99310.72;;;36.38;17.81
81057;BME280;70563;50.084;14.468;2023-06-24T12:16:39;99306.16;;;37.89;16.50
81057;BME280;70563;50.084;14.468;2023-06-24T12:19:06;99309.13;;;35.83;18.58
81057;BME280;70563;50.084;14.468;2023-06-24T12:21:31;99314.47;;;35.79;18.14
81057;BME280;70563;50.084;14.468;2023-06-24T12:23:57;99313.34;;;36.34;17.45
81057;BME280;70563;50.084;14.468;2023-06-24T12:26:22;99311.41;;;36.35;17.17
81057;BME280;70563;50.084;14.468;2023-06-24T12:28:47;99307.78;;;35.68;17.07
81057;BME280;70563;50.084;14.468;2023-06-24T12:31:13;99304.22;;;36.09;17.08
81057;BME280;70563;50.084;14.468;2023-06-24T12:33:38;99296.00;;;36.55;16.65
81057;BME280;70563;50.084;14.468;2023-06-24T12:36:04;99296.34;;;35.15;18.09
81057;BME280;70563;50.084;14.468;2023-06-24T12:38:29;99298.50;;;35.31;18.13
81057;BME280;70563;50.084;14.468;2023-06-24T12:40:56;99290.28;;;36.60;15.64
81057;BME280;70563;50.084;14.468;2023-06-24T12:43:22;99283.94;;;35.60;17.34
81057;BME280;70563;50.084;14.468;2023-06-24T12:45:47;99291.19;;;35.35;18.41
81057;BME280;70563;50.084;14.468;2023-06-24T12:48:13;99289.97;;;36.28;17.66
81057;BME280;70563;50.084;14.468;2023-06-24T12:50:39;99289.50;;;35.93;16.70
81057;BME280;70563;50.084;14.468;2023-06-24T12:53:04;99280.22;;;36.18;15.86
81057;BME280;70563;50.084;14.468;2023-06-24T12:55:30;99282.75;;;35.40;16.72
81057;BME280;70563;50.084;14.468;2023-06-24T12:57:56;99285.16;;;35.50;16.90
81057;BME280;70563;50.084;14.468;2023-06-24T13:00:22;99286.56;;;35.27;17.24
81057;BME280;70563;50.084;14.468;2023-06-24T13:02:48;99282.28;;;35.67;17.25
81057;BME280;70563;50.084;14.468;2023-06-24T13:05:14;99277.22;;;32.81;20.27
81057;BME280;70563;50.084;14.468;2023-06-24T13:07:40;99278.84;;;34.43;18.37
81057;BME280;70563;50.084;14.468;2023-06-24T13:10:06;99277.94;;;34.78;18.47
81057;BME280;70563;50.084;14.468;2023-06-24T13:12:35;99276.69;;;34.66;18.21
81057;BME280;70563;50.084;14.468;2023-06-24T13:15:01;99278.53;;;35.22;17.54